sensor_id;sensor_type;location;lat;lon;timestamp;P1;durP1;ratioP1;P2;durP2;ratioP2
34571;SDS011;20808;48.974;8.452;2022-08-01T00:01:47;2.50;;;2.30;;
34571;SDS011;20808;48.974;8.452;2022-08-01T00:04:13;2.67;;;2.43;;
34571;SDS011;20808;48.974;8.452;2022-08-01T00:06:42;4.00;;;2.60;;
34571;SDS011;20808;48.974;8.452;2022-08-01T00:09:08;3.10;;;2.73;;
34571;SDS011;20808;48.974;8.452;2022-08-01T00:11:35;5.03;;;2.57;;
34571;SDS011;20808;48.974;8.452;2022-08-01T00:14:02;2.87;;;2.67;;
34571;SDS011;20808;48.974;8.452;2022-08-01T00:16:29;3.33;;;2.97;;
34571;SDS011;20808;48.974;8.452;2022-08-01T00:18:56;4.43;;;2.70;;
34571;SDS011;20808;48.974;8.452;2022-08-01T00:21:23;3.90;;;2.57;;
34571;SDS011;20808;48.974;8.452;2022-08-01T00:23:51;3.70;;;3.10;;
34571;SDS011;20808;48.974;8.452;2022-08-01T00:26:18;4.47;;;2.80;;
34571;SDS011;20808;48.974;8.452;2022-08-01T00:28:45;3.03;;;2.77;;
34571;SDS011;20808;48.974;8.452;2022-08-01T00:31:11;3.37;;;2.80;;
34571;SDS011;20808;48.974;8.452;2022-08-01T00:33:38;7.03;;;2.90;;
34571;SDS011;20808;48.974;8.452;2022-08-01T00:36:05;2.80;;;2.33;;
34571;SDS011;20808;48.974;8.452;2022-08-01T00:38:32;3.80;;;2.50;;
34571;SDS011;20808;48.974;8.452;2022-08-01T00:41:00;3.70;;;2.60;;
34571;SDS011;20808;48.974;8.452;2022-08-01T00:43:27;2.90;;;2.60;;
34571;SDS011;20808;48.974;8.452;2022-08-01T00:45:54;3.40;;;2.60;;
34571;SDS011;20808;48.974;8.452;2022-08-01T00:48:21;4.20;;;2.63;;
34571;SDS011;20808;48.974;8.452;2022-08-01T00:50:48;3.60;;;2.97;;
34571;SDS011;20808;48.974;8.452;2022-08-01T00:53:15;3.93;;;3.10;;
34571;SDS011;20808;48.974;8.452;2022-08-01T00:55:42;3.13;;;2.60;;
34571;SDS011;20808;48.974;8.452;2022-08-01T00:58:10;2.90;;;2.70;;
34571;SDS011;20808;48.974;8.452;2022-08-01T01:00:37;2.80;;;2.60;;
34571;SDS011;20808;48.974;8.452;2022-08-01T01:03:04;4.90;;;3.00;;
34571;SDS011;20808;48.974;8.452;2022-08-01T01:05:32;6.23;;;3.07;;
34571;SDS011;20808;48.974;8.452;2022-08-01T01:08:07;6.30;;;2.90;;
34571;SDS011;20808;48.974;8.452;2022-08-01T01:10:40;3.90;;;2.80;;
34571;SDS011;20808;48.974;8.452;2022-08-01T01:13:18;2.70;;;2.50;;
34571;SDS011;20808;48.974;8.452;2022-08-01T01:15:50;3.60;;;2.90;;
34571;SDS011;20808;48.974;8.452;2022-08-01T01:18:22;5.63;;;3.47;;
34571;SDS011;20808;48.974;8.452;2022-08-01T01:20:51;3.67;;;2.40;;
34571;SDS011;20808;48.974;8.452;2022-08-01T01:23:38;3.33;;;3.03;;
34571;SDS011;20808;48.974;8.452;2022-08-01T01:26:17;3.23;;;2.77;;
34571;SDS011;20808;48.974;8.452;2022-08-01T01:29:03;3.60;;;2.80;;
34571;SDS011;20808;48.974;8.452;2022-08-01T01:31:36;6.30;;;3.00;;
34571;SDS011;20808;48.974;8.452;2022-08-01T01:34:08;3.47;;;2.70;;
34571;SDS011;20808;48.974;8.452;2022-08-01T01:36:37;4.07;;;2.73;;
34571;SDS011;20808;48.974;8.452;2022-08-01T01:39:05;3.73;;;2.60;;
34571;SDS011;20808;48.974;8.452;2022-08-01T01:41:33;2.87;;;2.67;;
34571;SDS011;20808;48.974;8.452;2022-08-01T01:44:04;3.80;;;3.10;;
34571;SDS011;20808;48.974;8.452;2022-08-01T01:46:31;5.33;;;3.37;;
34571;SDS011;20808;48.974;8.452;2022-08-01T01:48:59;4.67;;;2.80;;
34571;SDS011;20808;48.974;8.452;2022-08-01T01:51:28;3.90;;;3.13;;
34571;SDS011;20808;48.974;8.452;2022-08-01T01:53:56;3.57;;;3.27;;
34571;SDS011;20808;48.974;8.452;2022-08-01T01:56:25;3.50;;;2.83;;
34571;SDS011;20808;48.974;8.452;2022-08-01T01:58:53;4.70;;;3.00;;
34571;SDS011;20808;48.974;8.452;2022-08-01T02:01:24;3.00;;;2.70;;
34571;SDS011;20808;48.974;8.452;2022-08-01T02:03:55;6.73;;;3.50;;
34571;SDS011;20808;48.974;8.452;2022-08-01T02:06:23;4.90;;;3.50;;
34571;SDS011;20808;48.974;8.452;2022-08-01T02:08:52;2.90;;;2.60;;
34571;SDS011;20808;48.974;8.452;2022-08-01T02:11:20;3.30;;;2.53;;
34571;SDS011;20808;48.974;8.452;2022-08-01T02:13:53;4.10;;;3.00;;
34571;SDS011;20808;48.974;8.452;2022-08-01T02:16:26;6.30;;;2.83;;
34571;SDS011;20808;48.974;8.452;2022-08-01T02:18:54;3.73;;;2.87;;
34571;SDS011;20808;48.974;8.452;2022-08-01T02:21:23;3.03;;;2.70;;
34571;SDS011;20808;48.974;8.452;2022-08-01T02:23:53;3.17;;;2.70;;
34571;SDS011;20808;48.974;8.452;2022-08-01T02:26:26;2.67;;;2.47;;
34571;SDS011;20808;48.974;8.452;2022-08-01T02:28:55;3.03;;;2.73;;
34571;SDS011;20808;48.974;8.452;2022-08-01T02:31:26;6.90;;;3.40;;
34571;SDS011;20808;48.974;8.452;2022-08-01T02:33:56;5.30;;;3.03;;
34571;SDS011;20808;48.974;8.452;2022-08-01T02:36:28;2.87;;;2.67;;
34571;SDS011;20808;48.974;8.452;2022-08-01T02:38:57;3.13;;;2.83;;
34571;SDS011;20808;48.974;8.452;2022-08-01T02:41:26;4.97;;;3.00;;
34571;SDS011;20808;48.974;8.452;2022-08-01T02:43:56;4.17;;;3.10;;
34571;SDS011;20808;48.974;8.452;2022-08-01T02:46:34;7.30;;;3.23;;
34571;SDS011;20808;48.974;8.452;2022-08-01T02:49:03;4.40;;;3.30;;
34571;SDS011;20808;48.974;8.452;2022-08-01T02:51:32;3.20;;;2.90;;
34571;SDS011;20808;48.974;8.452;2022-08-01T02:54:01;3.93;;;3.30;;
34571;SDS011;20808;48.974;8.452;2022-08-01T02:56:31;3.30;;;3.00;;
34571;SDS011;20808;48.974;8.452;2022-08-01T02:59:02;3.40;;;3.10;;
34571;SDS011;20808;48.974;8.452;2022-08-01T03:01:32;3.30;;;2.90;;
34571;SDS011;20808;48.974;8.452;2022-08-01T03:04:01;4.20;;;3.30;;
34571;SDS011;20808;48.974;8.452;2022-08-01T03:06:29;4.77;;;3.10;;
34571;SDS011;20808;48.974;8.452;2022-08-01T03:08:57;4.00;;;3.47;;
34571;SDS011;20808;48.974;8.452;2022-08-01T03:11:26;4.57;;;3.43;;
34571;SDS011;20808;48.974;8.452;2022-08-01T03:13:53;3.53;;;3.23;;
34571;SDS011;20808;48.974;8.452;2022-08-01T03:16:22;3.80;;;3.00;;
34571;SDS011;20808;48.974;8.452;2022-08-01T03:18:54;3.67;;;3.30;;
34571;SDS011;20808;48.974;8.452;2022-08-01T03:21:23;4.97;;;3.60;;
34571;SDS011;20808;48.974;8.452;2022-08-01T03:23:53;3.87;;;3.10;;
34571;SDS011;20808;48.974;8.452;2022-08-01T03:26:23;4.57;;;3.00;;
34571;SDS011;20808;48.974;8.452;2022-08-01T03:28:52;3.47;;;3.17;;
34571;SDS011;20808;48.974;8.452;2022-08-01T03:31:21;3.50;;;3.13;;
34571;SDS011;20808;48.974;8.452;2022-08-01T03:33:50;5.30;;;3.20;;
34571;SDS011;20808;48.974;8.452;2022-08-01T03:36:18;4.83;;;3.50;;
34571;SDS011;20808;48.974;8.452;2022-08-01T03:38:50;6.50;;;3.30;;
34571;SDS011;20808;48.974;8.452;2022-08-01T03:41:19;3.90;;;3.23;;
34571;SDS011;20808;48.974;8.452;2022-08-01T03:43:50;4.10;;;3.53;;
34571;SDS011;20808;48.974;8.452;2022-08-01T03:46:29;3.63;;;3.30;;
34571;SDS011;20808;48.974;8.452;2022-08-01T03:49:03;3.60;;;3.30;;
34571;SDS011;20808;48.974;8.452;2022-08-01T03:51:35;4.33;;;3.50;;
34571;SDS011;20808;48.974;8.452;2022-08-01T03:54:03;3.87;;;2.97;;
34571;SDS011;20808;48.974;8.452;2022-08-01T03:56:31;3.90;;;3.40;;
34571;SDS011;20808;48.974;8.452;2022-08-01T03:58:59;4.70;;;3.17;;
34571;SDS011;20808;48.974;8.452;2022-08-01T04:01:28;4.30;;;3.30;;
34571;SDS011;20808;48.974;8.452;2022-08-01T04:03:57;4.80;;;3.47;;
34571;SDS011;20808;48.974;8.452;2022-08-01T04:06:25;3.90;;;3.57;;
34571;SDS011;20808;48.974;8.452;2022-08-01T04:08:53;5.80;;;3.10;;
34571;SDS011;20808;48.974;8.452;2022-08-01T04:11:24;5.53;;;3.53;;
34571;SDS011;20808;48.974;8.452;2022-08-01T04:13:52;3.33;;;3.03;;
34571;SDS011;20808;48.974;8.452;2022-08-01T04:16:19;5.47;;;3.23;;
34571;SDS011;20808;48.974;8.452;2022-08-01T04:18:46;5.77;;;3.30;;
34571;SDS011;20808;48.974;8.452;2022-08-01T04:21:13;3.80;;;3.40;;
34571;SDS011;20808;48.974;8.452;2022-08-01T04:23:43;4.27;;;3.30;;
34571;SDS011;20808;48.974;8.452;2022-08-01T04:26:13;8.77;;;3.53;;
34571;SDS011;20808;48.974;8.452;2022-08-01T04:28:42;4.57;;;3.17;;
34571;SDS011;20808;48.974;8.452;2022-08-01T04:31:12;4.27;;;3.27;;
34571;SDS011;20808;48.974;8.452;2022-08-01T04:33:43;5.10;;;3.30;;
34571;SDS011;20808;48.974;8.452;2022-08-01T04:36:14;4.70;;;3.37;;
34571;SDS011;20808;48.974;8.452;2022-08-01T04:38:46;5.50;;;3.40;;
34571;SDS011;20808;48.974;8.452;2022-08-01T04:41:18;5.60;;;3.67;;
34571;SDS011;20808;48.974;8.452;2022-08-01T04:43:46;5.30;;;3.63;;
34571;SDS011;20808;48.974;8.452;2022-08-01T04:46:13;7.10;;;3.73;;
34571;SDS011;20808;48.974;8.452;2022-08-01T04:48:42;4.30;;;3.40;;
34571;SDS011;20808;48.974;8.452;2022-08-01T04:51:11;4.53;;;3.70;;
34571;SDS011;20808;48.974;8.452;2022-08-01T04:53:40;5.63;;;3.43;;
34571;SDS011;20808;48.974;8.452;2022-08-01T04:56:07;6.07;;;3.60;;
34571;SDS011;20808;48.974;8.452;2022-08-01T04:58:35;4.97;;;3.50;;
34571;SDS011;20808;48.974;8.452;2022-08-01T05:01:02;7.33;;;3.70;;
34571;SDS011;20808;48.974;8.452;2022-08-01T05:03:29;5.57;;;3.27;;
34571;SDS011;20808;48.974;8.452;2022-08-01T05:05:55;5.60;;;3.37;;
34571;SDS011;20808;48.974;8.452;2022-08-01T05:08:22;4.20;;;3.03;;
34571;SDS011;20808;48.974;8.452;2022-08-01T05:10:49;3.80;;;3.40;;
34571;SDS011;20808;48.974;8.452;2022-08-01T05:13:17;4.20;;;3.30;;
34571;SDS011;20808;48.974;8.452;2022-08-01T05:15:45;6.13;;;3.20;;
34571;SDS011;20808;48.974;8.452;2022-08-01T05:18:12;5.40;;;3.70;;
34571;SDS011;20808;48.974;8.452;2022-08-01T05:20:39;7.13;;;3.60;;
34571;SDS011;20808;48.974;8.452;2022-08-01T05:23:07;5.00;;;3.50;;
34571;SDS011;20808;48.974;8.452;2022-08-01T05:25:34;5.10;;;3.07;;
34571;SDS011;20808;48.974;8.452;2022-08-01T05:28:01;5.63;;;3.67;;
34571;SDS011;20808;48.974;8.452;2022-08-01T05:30:27;4.80;;;3.40;;
34571;SDS011;20808;48.974;8.452;2022-08-01T05:32:56;6.17;;;3.43;;
34571;SDS011;20808;48.974;8.452;2022-08-01T05:35:22;4.93;;;3.30;;
34571;SDS011;20808;48.974;8.452;2022-08-01T05:37:49;4.97;;;3.37;;
34571;SDS011;20808;48.974;8.452;2022-08-01T05:40:16;4.03;;;3.23;;
34571;SDS011;20808;48.974;8.452;2022-08-01T05:42:43;7.33;;;2.97;;
34571;SDS011;20808;48.974;8.452;2022-08-01T05:45:10;4.30;;;3.23;;
34571;SDS011;20808;48.974;8.452;2022-08-01T05:47:37;8.67;;;3.50;;
34571;SDS011;20808;48.974;8.452;2022-08-01T05:50:05;5.73;;;3.50;;
34571;SDS011;20808;48.974;8.452;2022-08-01T05:52:33;4.37;;;2.93;;
34571;SDS011;20808;48.974;8.452;2022-08-01T05:55:00;4.90;;;3.17;;
34571;SDS011;20808;48.974;8.452;2022-08-01T05:57:26;3.90;;;3.50;;
34571;SDS011;20808;48.974;8.452;2022-08-01T05:59:53;3.33;;;3.03;;
34571;SDS011;20808;48.974;8.452;2022-08-01T06:02:20;6.53;;;3.10;;
34571;SDS011;20808;48.974;8.452;2022-08-01T06:04:47;4.80;;;3.10;;
34571;SDS011;20808;48.974;8.452;2022-08-01T06:07:15;6.23;;;3.30;;
34571;SDS011;20808;48.974;8.452;2022-08-01T06:09:42;4.90;;;2.87;;
34571;SDS011;20808;48.974;8.452;2022-08-01T06:12:09;5.53;;;3.40;;
34571;SDS011;20808;48.974;8.452;2022-08-01T06:14:36;8.33;;;3.10;;
34571;SDS011;20808;48.974;8.452;2022-08-01T06:17:02;4.60;;;3.30;;
34571;SDS011;20808;48.974;8.452;2022-08-01T06:19:29;4.00;;;2.90;;
34571;SDS011;20808;48.974;8.452;2022-08-01T06:21:56;4.13;;;2.83;;
34571;SDS011;20808;48.974;8.452;2022-08-01T06:24:24;5.00;;;2.83;;
34571;SDS011;20808;48.974;8.452;2022-08-01T06:26:51;3.20;;;2.90;;
34571;SDS011;20808;48.974;8.452;2022-08-01T06:29:18;2.87;;;2.40;;
34571;SDS011;20808;48.974;8.452;2022-08-01T06:31:45;5.90;;;2.90;;
34571;SDS011;20808;48.974;8.452;2022-08-01T06:34:12;3.87;;;3.07;;
34571;SDS011;20808;48.974;8.452;2022-08-01T06:36:40;3.60;;;2.87;;
34571;SDS011;20808;48.974;8.452;2022-08-01T06:39:07;5.90;;;3.17;;
34571;SDS011;20808;48.974;8.452;2022-08-01T06:41:35;4.17;;;3.03;;
34571;SDS011;20808;48.974;8.452;2022-08-01T06:44:02;3.67;;;2.90;;
34571;SDS011;20808;48.974;8.452;2022-08-01T06:46:29;4.53;;;3.10;;
34571;SDS011;20808;48.974;8.452;2022-08-01T06:48:56;3.70;;;2.50;;
34571;SDS011;20808;48.974;8.452;2022-08-01T06:51:23;5.10;;;2.60;;
34571;SDS011;20808;48.974;8.452;2022-08-01T06:53:50;6.37;;;3.30;;
34571;SDS011;20808;48.974;8.452;2022-08-01T06:56:17;6.20;;;3.47;;
34571;SDS011;20808;48.974;8.452;2022-08-01T06:58:46;7.13;;;3.23;;
34571;SDS011;20808;48.974;8.452;2022-08-01T07:01:12;3.27;;;2.70;;
34571;SDS011;20808;48.974;8.452;2022-08-01T07:03:39;4.20;;;2.63;;
34571;SDS011;20808;48.974;8.452;2022-08-01T07:06:06;8.60;;;3.20;;
34571;SDS011;20808;48.974;8.452;2022-08-01T07:08:33;3.60;;;2.70;;
34571;SDS011;20808;48.974;8.452;2022-08-01T07:11:00;2.73;;;2.50;;
34571;SDS011;20808;48.974;8.452;2022-08-01T07:13:28;6.43;;;2.87;;
34571;SDS011;20808;48.974;8.452;2022-08-01T07:15:57;4.53;;;3.10;;
34571;SDS011;20808;48.974;8.452;2022-08-01T07:18:24;4.17;;;3.30;;
34571;SDS011;20808;48.974;8.452;2022-08-01T07:20:51;5.63;;;3.10;;
34571;SDS011;20808;48.974;8.452;2022-08-01T07:23:17;3.83;;;3.43;;
34571;SDS011;20808;48.974;8.452;2022-08-01T07:25:45;4.70;;;3.17;;
34571;SDS011;20808;48.974;8.452;2022-08-01T07:28:13;4.20;;;3.23;;
34571;SDS011;20808;48.974;8.452;2022-08-01T07:30:40;3.87;;;3.07;;
34571;SDS011;20808;48.974;8.452;2022-08-01T07:33:11;4.73;;;3.20;;
34571;SDS011;20808;48.974;8.452;2022-08-01T07:35:38;3.20;;;2.80;;
34571;SDS011;20808;48.974;8.452;2022-08-01T07:38:05;2.73;;;2.53;;
34571;SDS011;20808;48.974;8.452;2022-08-01T07:40:32;4.27;;;2.57;;
34571;SDS011;20808;48.974;8.452;2022-08-01T07:42:59;4.87;;;2.90;;
34571;SDS011;20808;48.974;8.452;2022-08-01T07:45:26;4.23;;;2.90;;
34571;SDS011;20808;48.974;8.452;2022-08-01T07:47:52;4.20;;;2.73;;
34571;SDS011;20808;48.974;8.452;2022-08-01T07:50:21;3.30;;;2.00;;
34571;SDS011;20808;48.974;8.452;2022-08-01T07:52:47;7.43;;;2.57;;
34571;SDS011;20808;48.974;8.452;2022-08-01T07:55:14;5.50;;;2.40;;
34571;SDS011;20808;48.974;8.452;2022-08-01T07:57:41;3.40;;;2.40;;
34571;SDS011;20808;48.974;8.452;2022-08-01T08:00:08;3.40;;;2.20;;
34571;SDS011;20808;48.974;8.452;2022-08-01T08:02:35;3.50;;;2.60;;
34571;SDS011;20808;48.974;8.452;2022-08-01T08:05:02;5.87;;;2.60;;
34571;SDS011;20808;48.974;8.452;2022-08-01T08:07:32;2.83;;;2.10;;
34571;SDS011;20808;48.974;8.452;2022-08-01T08:09:59;2.67;;;2.30;;
34571;SDS011;20808;48.974;8.452;2022-08-01T08:12:26;2.40;;;2.20;;
34571;SDS011;20808;48.974;8.452;2022-08-01T08:14:53;3.53;;;2.20;;
34571;SDS011;20808;48.974;8.452;2022-08-01T08:17:20;2.30;;;2.10;;
34571;SDS011;20808;48.974;8.452;2022-08-01T08:19:46;3.10;;;2.10;;
34571;SDS011;20808;48.974;8.452;2022-08-01T08:22:13;2.20;;;2.00;;
34571;SDS011;20808;48.974;8.452;2022-08-01T08:24:41;2.30;;;2.10;;
34571;SDS011;20808;48.974;8.452;2022-08-01T08:27:09;3.17;;;2.00;;
34571;SDS011;20808;48.974;8.452;2022-08-01T08:29:36;2.53;;;2.27;;
34571;SDS011;20808;48.974;8.452;2022-08-01T08:32:03;4.27;;;2.60;;
34571;SDS011;20808;48.974;8.452;2022-08-01T08:34:30;4.37;;;2.40;;
34571;SDS011;20808;48.974;8.452;2022-08-01T08:36:57;3.67;;;2.10;;
34571;SDS011;20808;48.974;8.452;2022-08-01T08:39:24;5.03;;;2.27;;
34571;SDS011;20808;48.974;8.452;2022-08-01T08:41:55;3.03;;;2.53;;
34571;SDS011;20808;48.974;8.452;2022-08-01T08:44:23;2.97;;;2.30;;
34571;SDS011;20808;48.974;8.452;2022-08-01T08:46:51;6.30;;;2.53;;
34571;SDS011;20808;48.974;8.452;2022-08-01T08:49:21;2.42;;;2.22;;
34571;SDS011;20808;48.974;8.452;2022-08-01T08:51:51;4.47;;;2.13;;
34571;SDS011;20808;48.974;8.452;2022-08-01T08:54:19;3.10;;;2.70;;
34571;SDS011;20808;48.974;8.452;2022-08-01T08:56:49;2.67;;;2.05;;
34571;SDS011;20808;48.974;8.452;2022-08-01T08:59:19;4.05;;;2.42;;
34571;SDS011;20808;48.974;8.452;2022-08-01T09:01:46;2.50;;;2.30;;
34571;SDS011;20808;48.974;8.452;2022-08-01T09:04:13;5.37;;;2.20;;
34571;SDS011;20808;48.974;8.452;2022-08-01T09:06:40;3.33;;;2.55;;
34571;SDS011;20808;48.974;8.452;2022-08-01T09:09:07;2.50;;;2.30;;
34571;SDS011;20808;48.974;8.452;2022-08-01T09:11:35;2.67;;;2.20;;
34571;SDS011;20808;48.974;8.452;2022-08-01T09:14:07;2.00;;;1.80;;
34571;SDS011;20808;48.974;8.452;2022-08-01T09:16:37;2.05;;;1.85;;
34571;SDS011;20808;48.974;8.452;2022-08-01T09:19:07;2.40;;;2.20;;
34571;SDS011;20808;48.974;8.452;2022-08-01T09:21:35;4.25;;;2.30;;
34571;SDS011;20808;48.974;8.452;2022-08-01T09:24:03;3.22;;;2.30;;
34571;SDS011;20808;48.974;8.452;2022-08-01T09:26:38;2.30;;;2.10;;
34571;SDS011;20808;48.974;8.452;2022-08-01T09:29:06;2.83;;;2.20;;
34571;SDS011;20808;48.974;8.452;2022-08-01T09:31:40;2.50;;;2.30;;
34571;SDS011;20808;48.974;8.452;2022-08-01T09:34:08;3.17;;;2.30;;
34571;SDS011;20808;48.974;8.452;2022-08-01T09:36:48;8.07;;;2.42;;
34571;SDS011;20808;48.974;8.452;2022-08-01T09:39:21;7.10;;;2.30;;
34571;SDS011;20808;48.974;8.452;2022-08-01T09:41:50;2.30;;;2.10;;
34571;SDS011;20808;48.974;8.452;2022-08-01T09:44:18;2.45;;;2.00;;
34571;SDS011;20808;48.974;8.452;2022-08-01T09:46:53;3.00;;;2.00;;
34571;SDS011;20808;48.974;8.452;2022-08-01T09:49:26;2.35;;;1.90;;
34571;SDS011;20808;48.974;8.452;2022-08-01T09:51:54;2.78;;;2.28;;
34571;SDS011;20808;48.974;8.452;2022-08-01T09:54:29;5.60;;;2.40;;
34571;SDS011;20808;48.974;8.452;2022-08-01T09:57:10;2.67;;;2.33;;
34571;SDS011;20808;48.974;8.452;2022-08-01T09:59:38;4.07;;;3.17;;
34571;SDS011;20808;48.974;8.452;2022-08-01T10:02:09;3.65;;;2.45;;
34571;SDS011;20808;48.974;8.452;2022-08-01T10:04:45;5.15;;;3.15;;
34571;SDS011;20808;48.974;8.452;2022-08-01T10:07:13;8.55;;;3.45;;
34571;SDS011;20808;48.974;8.452;2022-08-01T10:09:41;3.05;;;2.30;;
34571;SDS011;20808;48.974;8.452;2022-08-01T10:12:09;4.00;;;2.90;;
34571;SDS011;20808;48.974;8.452;2022-08-01T10:14:38;3.40;;;3.08;;
34571;SDS011;20808;48.974;8.452;2022-08-01T10:17:06;5.32;;;3.30;;
34571;SDS011;20808;48.974;8.452;2022-08-01T10:19:37;3.50;;;3.20;;
34571;SDS011;20808;48.974;8.452;2022-08-01T10:22:07;4.25;;;2.97;;
34571;SDS011;20808;48.974;8.452;2022-08-01T10:24:36;4.95;;;3.00;;
34571;SDS011;20808;48.974;8.452;2022-08-01T10:27:05;3.50;;;2.60;;
34571;SDS011;20808;48.974;8.452;2022-08-01T10:29:37;2.58;;;2.38;;
34571;SDS011;20808;48.974;8.452;2022-08-01T10:32:09;2.95;;;2.67;;
34571;SDS011;20808;48.974;8.452;2022-08-01T10:34:36;4.28;;;3.33;;
34571;SDS011;20808;48.974;8.452;2022-08-01T10:37:03;5.80;;;3.95;;
34571;SDS011;20808;48.974;8.452;2022-08-01T10:39:31;4.82;;;2.80;;
34571;SDS011;20808;48.974;8.452;2022-08-01T10:41:58;3.50;;;3.20;;
34571;SDS011;20808;48.974;8.452;2022-08-01T10:44:27;4.95;;;4.05;;
34571;SDS011;20808;48.974;8.452;2022-08-01T10:46:56;7.45;;;5.13;;
34571;SDS011;20808;48.974;8.452;2022-08-01T10:49:30;5.13;;;4.60;;
34571;SDS011;20808;48.974;8.452;2022-08-01T10:52:00;5.38;;;3.60;;
34571;SDS011;20808;48.974;8.452;2022-08-01T10:54:27;3.92;;;3.03;;
34571;SDS011;20808;48.974;8.452;2022-08-01T10:56:54;7.93;;;2.90;;
34571;SDS011;20808;48.974;8.452;2022-08-01T10:59:25;3.42;;;3.13;;
34571;SDS011;20808;48.974;8.452;2022-08-01T11:01:57;3.33;;;3.00;;
34571;SDS011;20808;48.974;8.452;2022-08-01T11:04:44;5.78;;;2.80;;
34571;SDS011;20808;48.974;8.452;2022-08-01T11:07:16;2.90;;;2.67;;
34571;SDS011;20808;48.974;8.452;2022-08-01T11:09:46;2.80;;;2.50;;
34571;SDS011;20808;48.974;8.452;2022-08-01T11:12:24;3.53;;;2.47;;
34571;SDS011;20808;48.974;8.452;2022-08-01T11:15:21;4.10;;;2.80;;
34571;SDS011;20808;48.974;8.452;2022-08-01T11:17:53;3.47;;;2.83;;
34571;SDS011;20808;48.974;8.452;2022-08-01T11:20:22;5.95;;;3.28;;
34571;SDS011;20808;48.974;8.452;2022-08-01T11:26:10;8.05;;;3.60;;
34571;SDS011;20808;48.974;8.452;2022-08-01T11:28:38;4.95;;;4.45;;
34571;SDS011;20808;48.974;8.452;2022-08-01T11:31:25;3.70;;;3.40;;
34571;SDS011;20808;48.974;8.452;2022-08-01T11:33:53;4.45;;;3.70;;
34571;SDS011;20808;48.974;8.452;2022-08-01T11:36:22;3.78;;;3.03;;
34571;SDS011;20808;48.974;8.452;2022-08-01T11:38:50;6.70;;;3.50;;
34571;SDS011;20808;48.974;8.452;2022-08-01T11:41:37;4.25;;;3.85;;
34571;SDS011;20808;48.974;8.452;2022-08-01T11:44:05;3.55;;;2.55;;
34571;SDS011;20808;48.974;8.452;2022-08-01T11:52:18;3.70;;;2.80;;
34571;SDS011;20808;48.974;8.452;2022-08-01T11:54:51;4.05;;;2.47;;
34571;SDS011;20808;48.974;8.452;2022-08-01T11:57:20;2.80;;;2.25;;
34571;SDS011;20808;48.974;8.452;2022-08-01T11:59:49;3.38;;;2.30;;
34571;SDS011;20808;48.974;8.452;2022-08-01T12:02:17;3.10;;;2.13;;
34571;SDS011;20808;48.974;8.452;2022-08-01T12:04:48;2.65;;;2.45;;
34571;SDS011;20808;48.974;8.452;2022-08-01T12:07:19;2.33;;;2.13;;
34571;SDS011;20808;48.974;8.452;2022-08-01T12:09:46;2.70;;;2.50;;
34571;SDS011;20808;48.974;8.452;2022-08-01T12:12:14;4.43;;;3.00;;
34571;SDS011;20808;48.974;8.452;2022-08-01T12:14:44;3.53;;;2.97;;
34571;SDS011;20808;48.974;8.452;2022-08-01T12:17:11;2.47;;;2.28;;
34571;SDS011;20808;48.974;8.452;2022-08-01T12:19:39;3.95;;;2.30;;
34571;SDS011;20808;48.974;8.452;2022-08-01T12:22:11;4.40;;;2.47;;
34571;SDS011;20808;48.974;8.452;2022-08-01T12:24:41;4.32;;;3.25;;
34571;SDS011;20808;48.974;8.452;2022-08-01T12:27:08;3.22;;;2.83;;
34571;SDS011;20808;48.974;8.452;2022-08-01T12:29:37;7.05;;;2.03;;
34571;SDS011;20808;48.974;8.452;2022-08-01T12:32:20;3.83;;;2.40;;
34571;SDS011;20808;48.974;8.452;2022-08-01T12:34:49;2.50;;;2.30;;
34571;SDS011;20808;48.974;8.452;2022-08-01T12:37:16;3.75;;;2.22;;
34571;SDS011;20808;48.974;8.452;2022-08-01T12:39:45;4.68;;;2.60;;
34571;SDS011;20808;48.974;8.452;2022-08-01T12:42:12;2.58;;;2.10;;
34571;SDS011;20808;48.974;8.452;2022-08-01T12:44:40;2.60;;;2.33;;
34571;SDS011;20808;48.974;8.452;2022-08-01T12:47:10;2.45;;;1.90;;
34571;SDS011;20808;48.974;8.452;2022-08-01T12:49:37;3.03;;;2.15;;
34571;SDS011;20808;48.974;8.452;2022-08-01T12:52:09;2.60;;;2.15;;
34571;SDS011;20808;48.974;8.452;2022-08-01T12:57:43;2.95;;;2.00;;
34571;SDS011;20808;48.974;8.452;2022-08-01T13:00:19;2.53;;;1.88;;
34571;SDS011;20808;48.974;8.452;2022-08-01T13:02:48;2.80;;;2.20;;
34571;SDS011;20808;48.974;8.452;2022-08-01T13:05:25;2.20;;;2.00;;
34571;SDS011;20808;48.974;8.452;2022-08-01T13:07:52;2.40;;;2.00;;
34571;SDS011;20808;48.974;8.452;2022-08-01T13:10:28;3.35;;;2.28;;
34571;SDS011;20808;48.974;8.452;2022-08-01T13:12:57;1.83;;;1.73;;
34571;SDS011;20808;48.974;8.452;2022-08-01T13:15:26;3.88;;;2.40;;
34571;SDS011;20808;48.974;8.452;2022-08-01T13:17:56;2.65;;;2.38;;
34571;SDS011;20808;48.974;8.452;2022-08-01T13:20:27;2.92;;;2.20;;
34571;SDS011;20808;48.974;8.452;2022-08-01T13:23:09;2.63;;;2.30;;
34571;SDS011;20808;48.974;8.452;2022-08-01T13:25:47;3.75;;;2.28;;
34571;SDS011;20808;48.974;8.452;2022-08-01T13:28:15;2.22;;;2.00;;
34571;SDS011;20808;48.974;8.452;2022-08-01T13:30:50;1.90;;;1.77;;
34571;SDS011;20808;48.974;8.452;2022-08-01T13:33:21;3.17;;;1.77;;
34571;SDS011;20808;48.974;8.452;2022-08-01T13:35:49;2.15;;;1.95;;
34571;SDS011;20808;48.974;8.452;2022-08-01T13:38:17;2.28;;;2.03;;
34571;SDS011;20808;48.974;8.452;2022-08-01T13:40:44;2.40;;;1.88;;
34571;SDS011;20808;48.974;8.452;2022-08-01T13:43:13;2.72;;;1.70;;
34571;SDS011;20808;48.974;8.452;2022-08-01T13:45:39;1.90;;;1.70;;
34571;SDS011;20808;48.974;8.452;2022-08-01T13:48:07;2.72;;;1.52;;
34571;SDS011;20808;48.974;8.452;2022-08-01T13:50:33;2.15;;;1.90;;
34571;SDS011;20808;48.974;8.452;2022-08-01T13:53:00;3.45;;;1.85;;
34571;SDS011;20808;48.974;8.452;2022-08-01T13:55:27;1.70;;;1.40;;
34571;SDS011;20808;48.974;8.452;2022-08-01T13:57:54;2.58;;;1.85;;
34571;SDS011;20808;48.974;8.452;2022-08-01T14:00:22;2.85;;;1.80;;
34571;SDS011;20808;48.974;8.452;2022-08-01T14:02:49;1.85;;;1.67;;
34571;SDS011;20808;48.974;8.452;2022-08-01T14:05:16;2.13;;;1.48;;
34571;SDS011;20808;48.974;8.452;2022-08-01T14:07:43;3.33;;;1.58;;
34571;SDS011;20808;48.974;8.452;2022-08-01T14:10:10;1.80;;;1.58;;
34571;SDS011;20808;48.974;8.452;2022-08-01T14:12:37;1.50;;;1.40;;
34571;SDS011;20808;48.974;8.452;2022-08-01T14:15:04;1.73;;;1.40;;
34571;SDS011;20808;48.974;8.452;2022-08-01T14:17:33;2.42;;;1.50;;
34571;SDS011;20808;48.974;8.452;2022-08-01T14:20:00;3.65;;;1.75;;
34571;SDS011;20808;48.974;8.452;2022-08-01T14:22:27;3.78;;;1.50;;
34571;SDS011;20808;48.974;8.452;2022-08-01T14:24:54;2.63;;;1.65;;
34571;SDS011;20808;48.974;8.452;2022-08-01T14:27:21;2.03;;;1.40;;
34571;SDS011;20808;48.974;8.452;2022-08-01T14:29:48;1.90;;;1.55;;
34571;SDS011;20808;48.974;8.452;2022-08-01T14:32:15;2.00;;;1.70;;
34571;SDS011;20808;48.974;8.452;2022-08-01T14:34:43;1.50;;;1.38;;
34571;SDS011;20808;48.974;8.452;2022-08-01T14:37:09;2.17;;;1.40;;
34571;SDS011;20808;48.974;8.452;2022-08-01T14:39:36;2.42;;;1.50;;
34571;SDS011;20808;48.974;8.452;2022-08-01T14:42:03;2.35;;;1.80;;
34571;SDS011;20808;48.974;8.452;2022-08-01T14:44:31;1.60;;;1.50;;
34571;SDS011;20808;48.974;8.452;2022-08-01T14:46:57;2.13;;;1.65;;
34571;SDS011;20808;48.974;8.452;2022-08-01T14:49:24;2.33;;;1.60;;
34571;SDS011;20808;48.974;8.452;2022-08-01T14:51:53;2.10;;;1.63;;
34571;SDS011;20808;48.974;8.452;2022-08-01T14:54:19;2.17;;;1.60;;
34571;SDS011;20808;48.974;8.452;2022-08-01T14:56:46;4.78;;;1.60;;
34571;SDS011;20808;48.974;8.452;2022-08-01T14:59:13;2.15;;;1.30;;
34571;SDS011;20808;48.974;8.452;2022-08-01T15:01:40;1.45;;;1.35;;
34571;SDS011;20808;48.974;8.452;2022-08-01T15:04:07;1.73;;;1.50;;
34571;SDS011;20808;48.974;8.452;2022-08-01T15:06:33;2.22;;;1.45;;
34571;SDS011;20808;48.974;8.452;2022-08-01T15:09:02;1.70;;;1.35;;
34571;SDS011;20808;48.974;8.452;2022-08-01T15:11:29;2.38;;;1.25;;